Latest Weather Observations for Lochington

IDQ60801

Issued at 4:35 pm EST Sunday 26 October 2014 (issued every 30 minutes, with the page automatically refreshed every 10 minutes)

About weather observations | Map of weather stations | Latest weather observations for QLD | Other Formats
Station Details ID: 035139 Name: LOCHINGTON Lat: -23.94 Lon: 147.53 Height: 267.19 m
Data from the previous 72 hours. | See also: Recent months at Lochington
Date/Time
EST
Temp
°C
App
Temp
°C
Dew
Point
Rel
Hum
%
Delta-T
°C
Wind Press
QNH
hPa
Press
MSL
hPa
Rain
since 9 am
mm
Dir
 
Spd
km/h
Gust
km/h
Spd
kts
Gust
kts
26/04:30pm 36.2 34.4 5.5 15 16.9 E 4 9 2 5 1011.9 1010.6 0.0
26/04:00pm 37.2 35.4 5.3 14 17.5 SW 4 7 2 4 1012.0 1010.7 0.0
26/03:30pm 36.4 34.3 5.6 15 16.9 ESE 6 11 3 6 1012.1 1010.8 0.0
26/03:00pm 36.7 34.8 7.7 17 16.5 ESE 7 15 4 8 1012.7 1011.3 0.0
26/02:30pm 36.1 33.9 6.3 16 16.5 ESE 7 15 4 8 1013.0 1011.6 0.0
26/02:00pm 35.8 34.3 8.6 19 15.6 WSW 6 11 3 6 1013.6 1012.2 0.0
26/01:30pm 35.6 34.5 8.4 19 15.6 WNW 4 9 2 5 1014.2 1012.8 0.0
26/01:00pm 34.7 33.2 8.4 20 15.0 SSW 6 11 3 6 1014.8 1013.5 0.0
26/12:30pm 34.1 32.7 8.7 21 14.5 W 6 13 3 7 1015.5 1014.2 0.0
26/12:00pm 34.2 32.8 9.4 22 14.3 WSW 7 15 4 8 1016.0 1014.7 0.0
26/11:30am 32.5 31.1 8.7 23 13.5 W 6 15 3 8 1016.7 1015.3 0.0
26/11:00am 32.2 31.0 9.7 25 12.9 N 6 13 3 7 1017.1 1015.7 0.0
26/10:30am 31.1 29.7 8.8 25 12.6 ENE 6 11 3 6 1017.7 1016.3 0.0
26/10:00am 29.7 28.3 8.7 27 11.7 ENE 6 9 3 5 1018.1 1016.8 0.0
26/09:30am 28.5 27.3 8.2 28 11.2 ENE 4 7 2 4 1018.3 1017.0 0.0
26/09:00am 28.3 27.5 9.6 31 10.5 E 4 7 2 4 1018.7 1017.4 0.0
26/08:30am 26.4 25.4 8.8 33 9.7 ESE 4 6 2 3 1018.6 1017.3 0.0
26/08:00am 25.4 24.5 9.3 36 8.9 ENE 4 7 2 4 1018.4 1017.1 0.0
26/07:30am 24.2 23.0 9.4 39 8.1 E 6 9 3 5 1018.3 1017.0 0.0
26/07:00am 23.0 22.3 10.1 44 7.1 E 4 7 2 4 1018.0 1016.7 0.0
26/06:30am 21.0 20.0 10.2 50 5.9 E 6 7 3 4 1017.6 1016.2 0.0
26/06:00am 18.6 17.9 10.2 58 4.5 ESE 4 6 2 3 1017.2 1015.8 0.0
26/05:30am 16.9 16.4 9.3 61 4.0 WSW 2 6 1 3 1017.0 1015.6 0.0
26/05:00am 18.0 17.9 9.4 57 4.6 CALM 0 0 0 0 1016.8 1015.4 0.0
26/04:30am 18.2 18.1 9.3 56 4.7 CALM 0 0 0 0 1016.3 1014.9 0.0
26/04:00am 18.9 17.3 8.8 52 5.3 E 7 9 4 5 1015.9 1014.6 0.0
26/03:30am 19.5 17.7 9.4 52 5.4 E 9 11 5 6 1015.7 1014.4 0.0
26/03:00am 20.2 18.0 9.5 50 5.8 E 11 13 6 7 1015.7 1014.4 0.0
26/02:30am 21.0 18.7 8.9 46 6.5 E 11 15 6 8 1015.6 1014.3 0.0
26/02:00am 21.8 19.2 9.3 45 6.8 E 13 15 7 8 1015.5 1014.2 0.0
26/01:30am 22.6 19.7 9.7 44 7.1 ENE 15 17 8 9 1015.8 1014.5 0.0
26/01:00am 20.7 19.2 10.5 52 5.6 E 9 11 5 6 1016.3 1014.9 0.0
26/12:30am 21.7 21.0 10.2 48 6.3 E 4 7 2 4 1016.4 1015.0 0.0
26/12:00am 22.2 21.6 10.4 47 6.5 E 4 4 2 2 1016.7 1015.3 0.0
 
Date/Time
EST
Temp
°C
App
Temp
°C
Dew
Point
Rel
Hum
%
Delta-T
°C
Wind Press
QNH
hPa
Press
MSL
hPa
Rain
since 9 am
mm
Dir
 
Spd
km/h
Gust
km/h
Spd
kts
Gust
kts
25/11:30pm 22.0 22.3 10.8 49 6.2 CALM 0 0 0 0 1016.9 1015.5 0.0
25/11:00pm 22.9 23.1 10.7 46 6.8 CALM 0 0 0 0 1017.0 1015.6 0.0
25/10:30pm 22.1 22.0 9.6 45 6.8 CALM 0 2 0 1 1017.3 1015.9 0.0
25/10:00pm 24.3 24.3 9.8 40 8.0 NE 0 4 0 2 1017.2 1015.8 0.0
25/09:30pm 26.4 25.1 10.1 36 9.2 NE 7 9 4 5 1017.1 1015.7 0.0
25/09:00pm 26.9 25.7 10.2 35 9.4 NE 7 9 4 5 1017.0 1015.6 0.0
25/08:30pm 27.4 25.7 9.7 33 9.9 NNE 9 13 5 7 1016.8 1015.4 0.0
25/08:00pm 27.7 25.8 9.0 31 10.4 NNE 9 11 5 6 1016.7 1015.3 0.0
25/07:30pm 28.6 26.6 8.8 29 11.0 NNE 9 13 5 7 1016.4 1015.0 0.0
25/07:00pm 29.8 28.1 8.2 26 12.0 NNE 7 7 4 4 1016.0 1014.7 0.0
25/06:30pm 30.4 30.0 8.2 25 12.4 CALM 0 0 0 0 1015.9 1014.6 0.0
25/06:00pm 31.6 30.8 8.0 23 13.2 SE 2 2 1 1 1015.9 1014.6 0.0
25/05:30pm 32.9 32.4 7.7 21 14.1 CALM 0 4 0 2 1015.7 1014.4 0.0
25/05:00pm 33.1 31.3 7.1 20 14.4 SE 6 7 3 4 1015.5 1014.2 0.0
25/04:30pm 33.5 32.4 6.7 19 14.8 ENE 2 4 1 2 1015.5 1014.2 0.0
25/04:00pm 33.8 32.7 8.4 21 14.4 NE 4 7 2 4 1015.6 1014.3 0.0
25/03:30pm 33.8 32.1 8.4 21 14.4 N 7 11 4 6 1015.7 1014.4 0.0
25/03:00pm 32.9 31.2 8.4 22 13.8 N 7 13 4 7 1016.3 1014.9 0.0
25/02:30pm 33.1 31.8 9.2 23 13.7 E 6 11 3 6 1016.7 1015.3 0.0
25/02:00pm 33.1 32.0 9.8 24 13.5 ESE 6 13 3 7 1017.2 1015.8 0.0
25/01:30pm 32.5 31.9 10.5 26 12.8 SSE 4 7 2 4 1017.6 1016.2 0.0
25/01:00pm 31.1 29.8 9.3 26 12.4 ESE 6 11 3 6 1018.0 1016.7 0.0
25/12:30pm 30.6 29.3 10.0 28 11.8 NE 7 13 4 7 1018.6 1017.3 0.0
25/12:00pm 29.1 27.8 9.3 29 11.1 W 6 13 3 7 1019.4 1018.1 0.0
25/11:30am 29.3 28.3 10.4 31 10.8 W 6 11 3 6 1020.1 1018.7 0.0
25/11:00am 27.6 26.7 9.4 32 10.2 NNE 4 13 2 7 1020.6 1019.2 0.0
25/10:30am 27.5 26.6 10.7 35 9.6 N 6 11 3 6 1021.2 1019.9 0.0
25/10:00am 26.1 24.2 9.0 34 9.4 N 9 15 5 8 1021.7 1020.4 0.0
25/09:30am 25.2 23.7 9.1 36 8.9 N 7 15 4 8 1021.9 1020.6 0.0
25/09:00am 24.2 22.8 9.4 39 8.1 N 7 17 4 9 1022.0 1020.7 0.0
25/08:30am 23.4 22.5 10.8 45 7.1 N 6 11 3 6 1022.1 1020.8 0.0
25/08:00am 22.0 20.5 12.0 53 5.7 NNE 11 17 6 9 1021.9 1020.6 0.0
25/07:30am 20.9 20.4 12.6 59 4.8 NE 7 13 4 7 1021.9 1020.6 0.0
25/07:00am 19.4 18.8 12.4 64 4.0 NE 7 13 4 7 1021.6 1020.3 0.0
25/06:30am 18.6 18.0 12.4 67 3.5 ENE 7 13 4 7 1021.2 1019.9 0.0
25/06:00am 16.2 15.2 10.3 68 3.1 E 6 7 3 4 1020.9 1019.5 0.0
25/05:30am 15.6 14.4 9.7 68 3.1 E 6 7 3 4 1020.4 1019.0 0.0
25/05:00am 15.7 14.1 8.9 64 3.5 E 7 9 4 5 1019.9 1018.6 0.0
25/04:30am 16.4 14.3 8.4 59 4.1 E 9 11 5 6 1019.9 1018.6 0.0
25/04:00am 16.7 15.1 8.7 59 4.1 E 7 9 4 5 1019.6 1018.3 0.0
25/03:30am 17.3 15.7 8.7 57 4.5 E 7 9 4 5 1019.5 1018.2 0.0
25/03:00am 18.7 16.3 8.7 52 5.3 ENE 11 13 6 7 1019.4 1018.1 0.0
25/02:30am 19.0 17.1 9.2 53 5.2 ENE 9 11 5 6 1019.2 1017.9 0.0
25/02:00am 19.5 18.5 10.2 55 5.0 ENE 6 7 3 4 1019.3 1018.0 0.0
25/01:30am 19.8 18.9 10.5 55 5.1 ENE 6 7 3 4 1019.6 1018.3 0.0
25/01:00am 20.5 19.6 10.6 53 5.4 NE 6 9 3 5 1019.7 1018.4 0.0
25/12:30am 21.5 20.0 10.6 50 6.0 NE 9 13 5 7 1020.2 1018.8 0.0
25/12:00am 22.4 20.6 10.9 48 6.4 NE 11 17 6 9 1020.2 1018.8 0.0
 
Date/Time
EST
Temp
°C
App
Temp
°C
Dew
Point
Rel
Hum
%
Delta-T
°C
Wind Press
QNH
hPa
Press
MSL
hPa
Rain
since 9 am
mm
Dir
 
Spd
km/h
Gust
km/h
Spd
kts
Gust
kts
24/11:30pm 23.1 21.1 10.2 44 7.2 NE 11 17 6 9 1020.2 1018.8 0.0
24/11:00pm 24.3 21.1 9.8 40 8.0 NE 17 28 9 15 1020.1 1018.7 0.0
24/10:30pm 24.3 22.4 9.1 38 8.3 ENE 9 19 5 10 1019.7 1018.4 0.0
24/10:00pm 24.6 22.6 8.5 36 8.7 NNE 9 15 5 8 1019.5 1018.2 0.0
24/09:30pm 24.3 22.9 7.4 34 9.0 NNE 4 4 2 2 1019.2 1017.9 0.0
24/09:00pm 25.2 23.2 7.3 32 9.5 ENE 7 11 4 6 1019.0 1017.7 0.0
24/08:30pm 24.9 24.2 7.1 32 9.4 CALM 0 6 0 3 1018.6 1017.3 0.0
24/08:00pm 25.5 24.4 6.7 30 9.9 NNE 2 2 1 1 1018.3 1017.0 0.0
24/07:30pm 27.5 25.4 5.7 25 11.4 E 6 7 3 4 1017.8 1016.5 0.0
24/07:00pm 28.3 26.3 6.4 25 11.7 E 6 7 3 4 1017.7 1016.3 0.0
24/06:30pm 28.8 26.7 5.6 23 12.3 E 6 9 3 5 1017.5 1016.1 0.0
24/06:00pm 30.5 28.4 5.7 21 13.2 E 6 9 3 5 1017.2 1015.8 0.0
24/05:30pm 31.3 28.0 6.4 21 13.5 E 13 19 7 10 1016.8 1015.4 0.0
24/05:00pm 32.2 28.9 6.4 20 14.1 E 13 22 7 12 1016.5 1015.1 0.0
24/04:30pm 32.1 29.9 6.3 20 14.0 SE 7 17 4 9 1016.5 1015.1 0.0
24/04:00pm 32.7 30.6 6.8 20 14.2 E 7 11 4 6 1016.6 1015.2 0.0
24/03:30pm 32.5 30.6 6.7 20 14.2 SSE 6 17 3 9 1016.7 1015.3 0.0
24/03:00pm 32.4 30.9 8.6 23 13.4 WNW 6 13 3 7 1017.0 1015.6 0.0
24/02:30pm 32.5 30.3 8.0 22 13.7 SSE 9 24 5 13 1017.3 1015.9 0.0
24/02:00pm 32.4 29.5 8.0 22 13.6 ENE 13 30 7 16 1017.7 1016.3 0.0
24/01:30pm 31.6 29.1 8.0 23 13.2 E 11 19 6 10 1018.2 1016.9 0.0
24/01:00pm 30.9 29.4 9.2 26 12.3 ESE 7 15 4 8 1018.6 1017.3 0.0
24/12:30pm 30.0 27.9 8.4 26 12.0 ENE 9 17 5 9 1019.4 1018.1 0.0
24/12:00pm 29.4 27.7 8.5 27 11.6 ENE 7 17 4 9 1020.1 1018.7 0.0
24/11:30am 28.7 27.5 9.4 30 10.9 NNE 6 15 3 8 1020.5 1019.1 0.0
24/11:00am 27.2 25.6 8.6 31 10.2 N 7 13 4 7 1021.0 1019.6 0.0
24/10:30am 26.5 24.6 8.9 33 9.7 N 9 19 5 10 1021.5 1020.2 0.0
24/10:00am 25.8 23.4 8.8 34 9.3 ENE 11 19 6 10 1021.8 1020.5 0.0
24/09:30am 25.2 22.9 9.1 36 8.9 NE 11 17 6 9 1022.1 1020.8 0.0
24/09:00am 23.9 21.5 8.7 38 8.2 NNE 11 20 6 11 1022.3 1021.0 0.0
24/08:30am 23.3 21.8 9.0 40 7.8 NNE 7 13 4 7 1022.4 1021.1 0.0
24/08:00am 22.1 20.3 9.3 44 6.9 NNE 9 13 5 7 1022.3 1021.0 0.0
24/07:30am 21.0 19.6 10.8 52 5.7 ENE 9 11 5 6 1022.0 1020.7 0.0
24/07:00am 19.8 18.4 10.8 56 4.9 E 9 11 5 6 1021.6 1020.3 0.0
24/06:30am 18.0 16.8 10.4 61 4.1 ESE 7 11 4 6 1021.3 1020.0 0.0
24/06:00am 15.7 14.9 9.6 67 3.2 E 4 7 2 4 1021.0 1019.6 0.0
24/05:30am 15.4 14.5 9.1 66 3.3 E 4 6 2 3 1020.5 1019.1 0.0
24/05:00am 15.7 14.1 8.9 64 3.5 E 7 9 4 5 1020.2 1018.8 0.0
24/04:30am 15.9 14.3 8.6 62 3.8 E 7 9 4 5 1019.8 1018.5 0.0
24/04:00am 15.4 14.0 7.2 58 4.1 E 4 6 2 3 1019.6 1018.3 0.0
24/03:30am 17.0 14.8 7.9 55 4.7 ENE 9 11 5 6 1019.6 1018.3 0.0
24/03:00am 17.7 15.1 7.7 52 5.1 E 11 13 6 7 1019.4 1018.1 0.0
24/02:30am 18.0 15.6 7.1 49 5.5 E 9 11 5 6 1019.5 1018.2 0.0
24/02:00am 19.2 16.1 7.3 46 6.1 E 13 15 7 8 1019.5 1018.2 0.0
24/01:30am 19.4 15.8 6.8 44 6.4 ENE 15 17 8 9 1019.6 1018.3 0.0
24/01:00am 19.4 16.1 6.2 42 6.6 ENE 13 15 7 8 1019.7 1018.4 0.0
24/12:30am 20.0 16.5 5.6 39 7.2 E 13 15 7 8 1019.7 1018.4 0.0
24/12:00am 21.1 18.4 5.5 36 7.8 ENE 9 13 5 7 1019.7 1018.4 0.0
 
Date/Time
EST
Temp
°C
App
Temp
°C
Dew
Point
Rel
Hum
%
Delta-T
°C
Wind Press
QNH
hPa
Press
MSL
hPa
Rain
since 9 am
mm
Dir
 
Spd
km/h
Gust
km/h
Spd
kts
Gust
kts
23/11:30pm 19.2 17.7 6.7 44 6.4 NE 4 7 2 4 1019.8 1018.5 0.0
23/11:00pm 19.9 19.2 7.0 43 6.6 CALM 0 0 0 0 1019.7 1018.4 0.0
23/10:30pm 18.6 17.8 6.4 45 6.1 CALM 0 2 0 1 1019.6 1018.3 0.0
23/10:00pm 21.5 19.2 5.0 34 8.2 ENE 6 7 3 4 1019.3 1018.0 0.0
23/09:30pm 23.9 21.5 5.3 30 9.5 ENE 7 7 4 4 1019.1 1017.8 0.0
23/09:00pm 23.3 21.6 5.7 32 9.0 ESE 4 4 2 2 1018.9 1017.6 0.0
23/08:30pm 25.2 22.3 4.9 27 10.4 NE 9 9 5 5 1018.4 1017.1 0.0
23/08:00pm 25.5 23.1 5.1 27 10.5 NE 7 9 4 5 1018.0 1016.7 0.0
23/07:30pm 25.8 23.4 5.4 27 10.6 NE 7 9 4 5 1017.7 1016.3 0.0
23/07:00pm 26.1 23.3 5.1 26 10.8 NE 9 11 5 6 1017.4 1016.0 0.0
23/06:30pm 27.8 25.1 5.4 24 11.7 ENE 9 11 5 6 1017.2 1015.8 0.0
23/06:00pm 29.1 25.9 5.2 22 12.5 ENE 11 17 6 9 1016.9 1015.5 0.0
23/05:30pm 29.9 26.3 5.2 21 13.0 E 13 20 7 11 1016.7 1015.3 0.0
23/05:00pm 30.6 25.9 5.1 20 13.5 E 19 24 10 13 1016.5 1015.1 0.0

Other Formats:

Comma delimited format used in spreadsheet applications
http://www.bom.gov.au/fwo/IDQ60801/IDQ60801.94399.axf

JavaScript Object Notation format (JSON) in row-major order
http://www.bom.gov.au/fwo/IDQ60801/IDQ60801.94399.json